createdAt,value
2022-08-10T00:02:14.839Z,99596.44
2022-08-10T00:04:43.612Z,99594.56
2022-08-10T00:07:12.468Z,99590.88
2022-08-10T00:09:50.861Z,99596.19
2022-08-10T00:12:20.397Z,99603.63
2022-08-10T00:14:50.666Z,99600.16
2022-08-10T00:17:19.402Z,99594.31
2022-08-10T00:20:03.396Z,99597.25
2022-08-10T00:22:37.604Z,99595.38
2022-08-10T00:25:21.757Z,99598.59
2022-08-10T00:28:02.872Z,99593.00
2022-08-10T00:30:34.254Z,99598.84
2022-08-10T00:33:03.008Z,99591.91
2022-08-10T00:35:31.776Z,99587.69
2022-08-10T00:38:00.642Z,99594.06
2022-08-10T00:40:37.018Z,99594.56
2022-08-10T00:43:06.512Z,99604.13
2022-08-10T00:45:37.151Z,99583.91
2022-08-10T00:48:06.376Z,99595.09
2022-08-10T00:50:36.085Z,99593.50
2022-08-10T00:53:04.818Z,99603.09
2022-08-10T00:55:34.160Z,99597.75
2022-08-10T00:58:22.921Z,99594.06
2022-08-10T01:00:53.071Z,99595.13
2022-08-10T01:04:36.206Z,99593.00
2022-08-10T01:06:16.141Z,99594.84
2022-08-10T01:08:50.828Z,99589.25
2022-08-10T01:12:27.751Z,99589.81
2022-08-10T01:14:16.825Z,99592.44
2022-08-10T01:16:51.860Z,99594.56
2022-08-10T01:19:37.593Z,99590.84
2022-08-10T01:22:24.295Z,99588.44
2022-08-10T01:25:08.112Z,99590.03
2022-08-10T01:27:42.425Z,99592.41
2022-08-10T01:30:13.674Z,99605.16
2022-08-10T01:32:48.434Z,99598.50
2022-08-10T01:35:21.665Z,99600.88
2022-08-10T01:38:00.857Z,99599.56
2022-08-10T01:40:30.305Z,99590.25
2022-08-10T01:42:59.647Z,99598.25
2022-08-10T01:45:45.006Z,99597.69
2022-08-10T01:48:28.622Z,99600.34
2022-08-10T01:51:01.793Z,99604.03
2022-08-10T01:53:43.690Z,99588.63
2022-08-10T01:56:14.358Z,99603.50
2022-08-10T01:58:44.271Z,99602.41
2022-08-10T02:01:17.441Z,99604.00
2022-08-10T02:04:05.302Z,99594.69
2022-08-10T02:06:38.242Z,99603.72
2022-08-10T02:09:08.626Z,99602.66
2022-08-10T02:12:05.455Z,99606.63
2022-08-10T02:14:33.446Z,99600.22
2022-08-10T02:17:07.865Z,99611.91
2022-08-10T02:19:37.827Z,99612.09
2022-08-10T02:22:09.470Z,99608.91
2022-08-10T02:24:57.541Z,99606.22
2022-08-10T02:27:28.067Z,99609.66
2022-08-10T02:29:57.362Z,99612.84
2022-08-10T02:32:36.414Z,99614.69
2022-08-10T02:35:14.781Z,99608.31
2022-08-10T02:37:53.699Z,99613.31
2022-08-10T02:45:14.848Z,99601.09
2022-08-10T02:45:23.391Z,99605.03
2022-08-10T02:46:27.724Z,99611.88
2022-08-10T02:49:03.114Z,99612.91
2022-08-10T02:52:07.971Z,99615.56
2022-08-10T02:54:29.916Z,99612.38
2022-08-10T02:57:03.491Z,99607.81
2022-08-10T02:59:38.540Z,99603.03
2022-08-10T03:02:13.346Z,99607.03
2022-08-10T03:04:55.576Z,99608.31
2022-08-10T03:07:44.042Z,99600.63
2022-08-10T03:10:21.549Z,99599.47
2022-08-10T03:12:53.457Z,99607.72
2022-08-10T03:15:22.866Z,99609.28
2022-08-10T03:17:56.918Z,99601.50
2022-08-10T03:20:36.806Z,99611.38
2022-08-10T03:23:15.177Z,99609.19
2022-08-10T03:25:54.412Z,99614.75
2022-08-10T03:28:24.780Z,99607.09
2022-08-10T03:30:54.054Z,99605.28
2022-08-10T03:33:23.798Z,99606.31
2022-08-10T03:36:43.772Z,99615.31
2022-08-10T03:38:45.994Z,99610.69
2022-08-10T03:41:16.710Z,99612.88
2022-08-10T03:43:48.196Z,99613.00
2022-08-10T03:46:19.721Z,99606.59
2022-08-10T03:48:51.191Z,99617.00
2022-08-10T03:51:23.275Z,99620.44
2022-08-10T03:54:04.539Z,99629.41
2022-08-10T03:56:38.063Z,99610.56
2022-08-10T03:59:11.483Z,99621.16
2022-08-10T04:02:42.234Z,99615.59
2022-08-10T04:04:29.330Z,99614.81
2022-08-10T04:07:00.376Z,99629.91
2022-08-10T04:09:54.499Z,99623.53
2022-08-10T04:12:19.496Z,99624.00
2022-08-10T04:14:51.407Z,99622.63
2022-08-10T04:18:01.332Z,99631.91
2022-08-10T04:20:19.567Z,99628.44
2022-08-10T04:22:52.802Z,99629.81
2022-08-10T04:25:22.702Z,99637.22
2022-08-10T04:27:51.815Z,99631.00
2022-08-10T04:30:20.986Z,99625.72
2022-08-10T04:32:53.630Z,99629.53
2022-08-10T04:35:24.062Z,99636.97
2022-08-10T04:37:55.429Z,99637.03
2022-08-10T04:40:28.332Z,99642.88
2022-08-10T04:43:02.454Z,99647.13
2022-08-10T04:45:48.647Z,99645.81
2022-08-10T04:48:41.142Z,99643.97
2022-08-10T04:51:17.387Z,99643.72
2022-08-10T04:54:05.946Z,99647.75
2022-08-10T04:56:36.691Z,99637.56
2022-08-10T04:59:06.635Z,99647.16
2022-08-10T05:02:22.214Z,99645.00
2022-08-10T05:04:35.020Z,99641.81
2022-08-10T05:07:07.348Z,99645.50
2022-08-10T05:10:03.734Z,99641.31
2022-08-10T05:12:26.879Z,99636.03
2022-08-10T05:14:55.828Z,99650.88
2022-08-10T05:17:24.910Z,99647.72
2022-08-10T05:20:02.848Z,99655.16
2022-08-10T05:22:36.723Z,99657.03
2022-08-10T05:25:11.585Z,99650.53
2022-08-10T05:27:40.807Z,99656.97
2022-08-10T05:30:13.302Z,99654.50
2022-08-10T05:32:56.754Z,99651.69
2022-08-10T05:35:57.114Z,99650.63
2022-08-10T05:38:19.621Z,99646.97
2022-08-10T05:40:50.883Z,99649.84
2022-08-10T05:43:21.416Z,99645.91
2022-08-10T05:46:16.705Z,99639.78
2022-08-10T05:48:56.830Z,99632.31
2022-08-10T05:51:30.305Z,99639.50
2022-08-10T05:54:05.026Z,99647.16
2022-08-10T05:56:54.018Z,99653.00
2022-08-10T06:00:35.829Z,99651.94
2022-08-10T06:02:31.260Z,99646.84
2022-08-10T06:05:08.603Z,99649.25
2022-08-10T06:07:41.677Z,99651.63
2022-08-10T06:10:14.029Z,99654.84
2022-08-10T06:13:19.394Z,99646.31
2022-08-10T06:16:04.277Z,99653.47
2022-08-10T06:18:33.528Z,99648.72
2022-08-10T06:21:02.809Z,99646.63
2022-08-10T06:23:33.404Z,99647.69
2022-08-10T06:26:09.917Z,99650.88
2022-08-10T06:29:02.047Z,99655.16
2022-08-10T06:31:47.877Z,99645.88
2022-08-10T06:34:22.523Z,99646.97
2022-08-10T06:36:53.018Z,99649.88
2022-08-10T06:39:33.417Z,99646.16
2022-08-10T06:42:15.802Z,99640.84
2022-08-10T06:44:54.334Z,99649.06
2022-08-10T06:47:26.898Z,99643.72
2022-08-10T06:50:09.552Z,99639.47
2022-08-10T06:52:39.511Z,99631.47
2022-08-10T06:55:12.625Z,99647.41
2022-08-10T06:57:46.019Z,99637.03
2022-08-10T07:00:34.300Z,99644.69
2022-08-10T07:03:08.360Z,99645.91
2022-08-10T07:05:40.891Z,99630.34
2022-08-10T07:08:12.550Z,99625.56
2022-08-10T07:10:45.549Z,99639.53
2022-08-10T07:14:17.435Z,99641.31
2022-08-10T07:16:11.100Z,99649.91
2022-08-10T07:18:40.530Z,99640.16
2022-08-10T07:21:09.891Z,99647.63
2022-08-10T07:23:57.741Z,99631.41
2022-08-10T07:26:30.146Z,99639.00
2022-08-10T07:28:59.696Z,99636.88
2022-08-10T07:31:56.368Z,99628.19
2022-08-10T07:34:28.626Z,99617.41
2022-08-10T07:37:03.713Z,99624.22
2022-08-10T07:40:01.869Z,99621.94
2022-08-10T07:42:31.225Z,99624.41
2022-08-10T07:45:00.991Z,99618.22
2022-08-10T07:47:52.823Z,99628.41
2022-08-10T07:50:24.807Z,99626.56
2022-08-10T07:52:55.175Z,99619.59
2022-08-10T07:56:07.450Z,99618.94
2022-08-10T07:58:14.740Z,99614.34
2022-08-10T08:00:44.996Z,99619.81
2022-08-10T08:03:17.302Z,99618.44
2022-08-10T08:05:58.645Z,99619.63
2022-08-10T08:08:34.202Z,99613.50
2022-08-10T08:11:03.921Z,99612.34
2022-08-10T08:13:33.085Z,99610.34
2022-08-10T08:16:19.154Z,99608.13
2022-08-10T08:19:23.573Z,99609.91
2022-08-10T08:24:05.426Z,99627.13
2022-08-10T08:24:34.569Z,99612.44
2022-08-10T08:27:06.058Z,99614.38
2022-08-10T08:29:37.166Z,99624.19
2022-08-10T08:32:07.314Z,99617.38
2022-08-10T08:34:39.588Z,99602.66
2022-08-10T08:37:10.558Z,99618.97
2022-08-10T08:39:41.151Z,99616.28
2022-08-10T08:42:20.135Z,99612.34
2022-08-10T08:45:02.007Z,99608.22
2022-08-10T08:48:05.399Z,99612.03
2022-08-10T08:50:41.712Z,99612.81
2022-08-10T08:53:23.164Z,99612.81
2022-08-10T08:56:06.233Z,99598.88
2022-08-10T08:58:50.048Z,99603.91
2022-08-10T09:01:40.363Z,99598.97
2022-08-10T09:04:22.122Z,99603.31
2022-08-10T09:07:59.710Z,99599.81
2022-08-10T09:10:04.992Z,99596.47
2022-08-10T09:12:42.753Z,99606.00
2022-08-10T09:15:39.492Z,99602.97
2022-08-10T09:18:12.237Z,99596.00
2022-08-10T09:20:44.234Z,99592.44
2022-08-10T09:23:22.027Z,99586.34
2022-08-10T09:26:17.952Z,99582.97
2022-08-10T09:29:11.853Z,99587.53
2022-08-10T09:33:05.590Z,99582.50
2022-08-10T09:36:22.794Z,99567.25
2022-08-10T09:37:39.958Z,99580.00
2022-08-10T09:40:57.563Z,99563.78
2022-08-10T09:43:26.051Z,99572.59
2022-08-10T09:46:02.580Z,99582.75
2022-08-10T09:48:34.232Z,99570.75
2022-08-10T09:54:01.539Z,99574.13
2022-08-10T09:56:42.013Z,99570.81
2022-08-10T09:59:59.709Z,99550.81
2022-08-10T10:02:11.360Z,99549.09
2022-08-10T10:04:44.308Z,99559.34
2022-08-10T10:07:20.555Z,99559.75
2022-08-10T10:09:56.955Z,99567.50
2022-08-10T10:12:37.396Z,99551.09
2022-08-10T10:15:24.834Z,99567.75
2022-08-10T10:18:20.055Z,99551.22
2022-08-10T10:20:55.631Z,99560.34
2022-08-10T10:23:36.273Z,99574.34
2022-08-10T10:26:18.410Z,99558.56
2022-08-10T10:31:56.167Z,99557.41
2022-08-10T10:34:31.985Z,99554.81
2022-08-10T10:37:01.794Z,99540.47
2022-08-10T10:39:32.416Z,99552.44
2022-08-10T10:42:23.340Z,99551.66
2022-08-10T10:45:07.647Z,99540.19
2022-08-10T10:47:47.647Z,99537.63
2022-08-10T10:50:20.503Z,99543.34
2022-08-10T10:53:06.197Z,99545.16
2022-08-10T10:56:14.236Z,99547.28
2022-08-10T10:58:33.391Z,99542.94
2022-08-10T11:01:08.893Z,99532.88
2022-08-10T11:03:49.927Z,99526.94
2022-08-10T11:06:39.177Z,99537.84
2022-08-10T11:09:12.477Z,99528.56
2022-08-10T11:12:03.107Z,99521.69
2022-08-10T11:14:39.043Z,99520.56
2022-08-10T11:17:16.060Z,99515.88
2022-08-10T11:20:01.599Z,99526.72
2022-08-10T11:22:37.161Z,99532.66
2022-08-10T11:25:14.434Z,99522.22
2022-08-10T11:27:49.060Z,99508.38
2022-08-10T11:30:21.291Z,99527.97
2022-08-10T11:33:04.075Z,99513.13
2022-08-10T11:35:38.885Z,99526.53
2022-08-10T11:38:34.209Z,99523.25
2022-08-10T11:42:08.839Z,99517.16
2022-08-10T11:44:04.974Z,99510.28
2022-08-10T11:46:36.062Z,99524.59
2022-08-10T11:49:11.196Z,99524.38
2022-08-10T11:51:46.516Z,99528.13
2022-08-10T11:54:23.094Z,99515.59
2022-08-10T11:56:58.452Z,99517.50
2022-08-10T11:59:58.308Z,99511.00
2022-08-10T12:02:32.798Z,99516.22
2022-08-10T12:05:10.669Z,99505.94
2022-08-10T12:10:06.057Z,99508.16
2022-08-10T12:10:33.779Z,99513.81
2022-08-10T12:13:10.063Z,99482.75
2022-08-10T12:15:42.906Z,99485.47
2022-08-10T12:18:16.591Z,99496.59
2022-08-10T12:20:50.994Z,99503.47
2022-08-10T12:23:23.782Z,99480.25
2022-08-10T12:25:59.632Z,99494.22
2022-08-10T12:28:50.701Z,99487.78
2022-08-10T12:31:26.691Z,99492.41
2022-08-10T12:34:05.610Z,99494.00
2022-08-10T12:36:41.490Z,99478.25
2022-08-10T12:39:16.561Z,99470.56
2022-08-10T12:41:51.244Z,99474.66
2022-08-10T12:44:41.086Z,99484.69
2022-08-10T12:47:20.336Z,99477.22
2022-08-10T12:50:30.639Z,99474.56
2022-08-10T12:52:56.365Z,99470.25
2022-08-10T12:55:26.111Z,99466.78
2022-08-10T12:57:57.138Z,99472.06
2022-08-10T13:00:31.900Z,99457.69
2022-08-10T13:03:01.630Z,99458.09
2022-08-10T13:05:54.741Z,99461.81
2022-08-10T13:08:47.089Z,99459.25
2022-08-10T13:12:34.853Z,99456.31
2022-08-10T13:14:11.498Z,99460.59
2022-08-10T13:16:42.512Z,99453.72
2022-08-10T13:19:12.211Z,99445.97
2022-08-10T13:21:41.417Z,99435.63
2022-08-10T13:24:14.020Z,99431.38
2022-08-10T13:27:09.127Z,99431.56
2022-08-10T13:29:40.858Z,99431.56
2022-08-10T13:32:11.980Z,99427.31
2022-08-10T13:34:46.451Z,99425.75
2022-08-10T13:37:17.143Z,99410.22
2022-08-10T13:39:59.641Z,99412.25
2022-08-10T13:42:32.790Z,99411.09
2022-08-10T13:45:07.587Z,99416.53
2022-08-10T13:47:48.590Z,99416.28
2022-08-10T13:50:33.740Z,99415.81
2022-08-10T13:53:13.226Z,99415.56
2022-08-10T13:55:54.827Z,99399.19
2022-08-10T13:58:27.614Z,99400.69
2022-08-10T14:00:57.232Z,99400.22
2022-08-10T14:03:27.417Z,99398.56
2022-08-10T14:05:57.489Z,99405.94
2022-08-10T14:08:29.325Z,99383.88
2022-08-10T14:11:11.247Z,99399.97
2022-08-10T14:13:47.264Z,99394.03
2022-08-10T14:16:17.075Z,99390.44
2022-08-10T14:18:46.405Z,99381.41
2022-08-10T14:21:15.379Z,99385.13
2022-08-10T14:23:52.819Z,99385.25
2022-08-10T14:26:26.164Z,99390.22
2022-08-10T14:28:57.691Z,99380.63
2022-08-10T14:31:34.035Z,99372.78
2022-08-10T14:34:05.115Z,99376.63
2022-08-10T14:36:42.205Z,99378.13
2022-08-10T14:39:16.063Z,99381.88
2022-08-10T14:42:01.713Z,99363.78
2022-08-10T14:44:45.435Z,99346.69
2022-08-10T14:47:52.653Z,99358.97
2022-08-10T14:50:05.336Z,99365.91
2022-08-10T14:52:44.168Z,99370.03
2022-08-10T14:55:19.500Z,99370.53
2022-08-10T14:58:19.945Z,99352.69
2022-08-10T15:00:43.079Z,99359.44
2022-08-10T15:03:59.020Z,99358.78
2022-08-10T15:06:17.055Z,99363.78
2022-08-10T15:08:47.616Z,99353.78
2022-08-10T15:12:11.810Z,99356.63
2022-08-10T15:14:15.224Z,99347.09
2022-08-10T15:16:58.658Z,99347.28
2022-08-10T15:20:01.282Z,99354.72
2022-08-10T15:22:37.261Z,99352.63
2022-08-10T15:25:19.370Z,99340.94
2022-08-10T15:27:56.854Z,99343.34
2022-08-10T15:30:31.770Z,99338.59
2022-08-10T15:34:01.915Z,99349.16
2022-08-10T15:36:35.372Z,99337.63
2022-08-10T15:39:14.950Z,99341.97
2022-08-10T15:42:00.297Z,99344.22
2022-08-10T15:44:38.780Z,99335.47
2022-08-10T15:47:15.201Z,99333.38
2022-08-10T15:49:49.220Z,99323.38
2022-08-10T15:52:59.767Z,99327.25
2022-08-10T15:55:42.460Z,99331.44
2022-08-10T15:58:06.709Z,99334.72
2022-08-10T16:00:39.672Z,99328.31
2022-08-10T16:03:17.283Z,99325.94
2022-08-10T16:06:02.108Z,99323.25
2022-08-10T16:08:55.838Z,99320.88
2022-08-10T16:11:28.069Z,99326.63
2022-08-10T16:14:12.036Z,99323.94
2022-08-10T16:16:41.685Z,99323.31
2022-08-10T16:19:23.780Z,99317.19
2022-08-10T16:22:00.278Z,99317.00
2022-08-10T16:24:32.687Z,99315.75
2022-08-10T16:27:06.488Z,99316.75
2022-08-10T16:29:53.456Z,99304.44
2022-08-10T16:32:26.982Z,99305.06
2022-08-10T16:34:57.885Z,99299.69
2022-08-10T16:37:57.475Z,99306.19
2022-08-10T16:40:22.873Z,99306.34
2022-08-10T16:42:52.536Z,99317.09
2022-08-10T16:45:26.289Z,99302.38
2022-08-10T16:47:57.279Z,99304.94
2022-08-10T16:50:30.419Z,99300.81
2022-08-10T16:53:02.306Z,99298.94
2022-08-10T16:55:48.417Z,99302.75
2022-08-10T16:58:25.606Z,99300.72
2022-08-10T17:00:55.468Z,99298.34
2022-08-10T17:04:06.816Z,99291.72
2022-08-10T17:06:24.816Z,99288.09
2022-08-10T17:08:55.642Z,99296.16
2022-08-10T17:11:29.409Z,99286.06
2022-08-10T17:13:59.119Z,99290.22
2022-08-10T17:16:35.160Z,99295.09
2022-08-10T17:19:05.082Z,99284.19
2022-08-10T17:21:51.033Z,99288.78
2022-08-10T17:24:25.097Z,99287.72
2022-08-10T17:26:57.949Z,99285.00
2022-08-10T17:29:58.111Z,99295.59
2022-08-10T17:32:21.868Z,99297.69
2022-08-10T17:34:54.250Z,99291.53
2022-08-10T17:37:27.116Z,99292.97
2022-08-10T17:39:59.491Z,99291.09
2022-08-10T17:42:28.731Z,99284.94
2022-08-10T17:44:59.349Z,99288.41
2022-08-10T17:47:28.579Z,99295.53
2022-08-10T17:49:58.335Z,99299.81
2022-08-10T17:52:30.608Z,99300.91
2022-08-10T17:55:02.266Z,99299.53
2022-08-10T17:57:35.000Z,99283.59
2022-08-10T18:00:07.504Z,99288.81
2022-08-10T18:02:37.855Z,99296.56
2022-08-10T18:05:09.992Z,99302.13
2022-08-10T18:07:45.307Z,99296.75
2022-08-10T18:10:18.005Z,99295.81
2022-08-10T18:12:48.464Z,99300.22
2022-08-10T18:15:19.779Z,99309.25
2022-08-10T18:17:51.710Z,99307.03
2022-08-10T18:20:27.732Z,99307.84
2022-08-10T18:22:58.860Z,99312.56
2022-08-10T18:25:30.418Z,99312.09
2022-08-10T18:28:04.535Z,99311.44
2022-08-10T18:30:37.270Z,99318.72
2022-08-10T18:33:11.005Z,99320.13
2022-08-10T18:35:41.090Z,99321.06
2022-08-10T18:38:12.708Z,99333.69
2022-08-10T18:40:45.462Z,99332.34
2022-08-10T18:44:06.897Z,99325.38
2022-08-10T18:46:08.183Z,99333.38
2022-08-10T18:48:41.731Z,99332.84
2022-08-10T18:51:11.349Z,99338.97
2022-08-10T18:53:48.221Z,99336.09
2022-08-10T18:56:26.599Z,99346.91
2022-08-10T18:59:06.173Z,99348.44
2022-08-10T19:01:50.341Z,99340.34
2022-08-10T19:04:27.601Z,99354.97
2022-08-10T19:07:06.611Z,99353.63
2022-08-10T19:09:47.823Z,99358.88
2022-08-10T19:12:32.983Z,99356.28
2022-08-10T19:15:14.595Z,99366.34
2022-08-10T19:18:01.210Z,99365.84
2022-08-10T19:20:36.576Z,99366.47
2022-08-10T19:23:31.490Z,99369.75
2022-08-10T19:26:38.097Z,99378.38
2022-08-10T19:29:14.006Z,99378.28
2022-08-10T19:32:05.030Z,99376.31
2022-08-10T19:34:42.953Z,99377.19
2022-08-10T19:37:20.180Z,99391.28
2022-08-10T19:40:02.885Z,99382.97
2022-08-10T19:42:38.467Z,99374.31
2022-08-10T19:45:56.117Z,99377.41
2022-08-10T19:48:17.053Z,99378.88
2022-08-10T19:50:49.578Z,99378.19
2022-08-10T19:53:24.994Z,99372.03
2022-08-10T19:56:13.367Z,99379.84
2022-08-10T19:58:58.078Z,99362.81
2022-08-10T20:01:55.886Z,99382.03
2022-08-10T20:04:22.354Z,99381.09
2022-08-10T20:07:03.285Z,99390.22
2022-08-10T20:09:39.853Z,99389.22
2022-08-10T20:12:11.593Z,99393.94
2022-08-10T20:14:49.371Z,99390.66
2022-08-10T20:17:26.152Z,99389.34
2022-08-10T20:20:00.071Z,99397.72
2022-08-10T20:22:31.263Z,99392.16
2022-08-10T20:25:05.171Z,99397.88
2022-08-10T20:27:58.146Z,99394.78
2022-08-10T20:30:30.037Z,99395.50
2022-08-10T20:33:02.921Z,99399.84
2022-08-10T20:35:34.426Z,99398.91
2022-08-10T20:38:10.192Z,99400.78
2022-08-10T20:40:44.064Z,99397.88
2022-08-10T20:43:22.313Z,99393.75
2022-08-10T20:46:08.588Z,99395.41
2022-08-10T20:48:44.266Z,99400.06
2022-08-10T20:51:16.118Z,99400.06
2022-08-10T20:53:48.444Z,99396.38
2022-08-10T20:56:23.208Z,99402.06
2022-08-10T20:59:13.137Z,99394.69
2022-08-10T21:02:06.545Z,99401.16
2022-08-10T21:04:48.201Z,99398.84
2022-08-10T21:08:00.631Z,99396.53
2022-08-10T21:10:32.485Z,99396.28
2022-08-10T21:13:17.065Z,99391.28
2022-08-10T21:15:56.599Z,99388.63
2022-08-10T21:18:34.925Z,99385.50
2022-08-10T21:21:10.399Z,99386.75
2022-08-10T21:23:51.854Z,99388.75
2022-08-10T21:26:31.816Z,99386.97
2022-08-10T21:29:19.555Z,99383.41
2022-08-10T21:32:06.862Z,99389.28
2022-08-10T21:34:54.510Z,99393.31
2022-08-10T21:37:39.626Z,99394.69
2022-08-10T21:40:34.796Z,99392.09
2022-08-10T21:43:45.746Z,99402.97
2022-08-10T21:46:39.779Z,99394.50
2022-08-10T21:49:53.128Z,99395.59
2022-08-10T21:52:53.647Z,99395.59
2022-08-10T21:55:57.791Z,99391.38
2022-08-10T21:58:48.949Z,99388.25
2022-08-10T22:01:41.798Z,99395.81
2022-08-10T22:04:29.950Z,99392.63
2022-08-10T22:07:17.491Z,99389.47
2022-08-10T22:10:09.304Z,99394.88
2022-08-10T22:12:59.363Z,99392.47
2022-08-10T22:16:09.829Z,99391.16
2022-08-10T22:19:02.101Z,99399.69
2022-08-10T22:22:00.709Z,99399.47
2022-08-10T22:25:00.023Z,99397.09
2022-08-10T22:27:51.843Z,99388.13
2022-08-10T22:30:39.206Z,99403.00
2022-08-10T22:33:37.325Z,99393.72
2022-08-10T22:36:44.926Z,99392.41
2022-08-10T22:40:11.010Z,99396.72
2022-08-10T22:42:59.535Z,99388.19
2022-08-10T22:45:55.701Z,99401.53
2022-08-10T22:48:42.189Z,99396.75
2022-08-10T22:51:16.809Z,99404.47
2022-08-10T22:54:04.315Z,99398.38
2022-08-10T22:56:55.741Z,99408.19
2022-08-10T22:59:30.515Z,99406.88
2022-08-10T23:02:08.635Z,99397.03
2022-08-10T23:04:44.979Z,99401.06
2022-08-10T23:07:21.669Z,99389.09
2022-08-10T23:09:57.879Z,99401.56
2022-08-10T23:12:31.338Z,99398.94
2022-08-10T23:15:18.452Z,99405.59
2022-08-10T23:18:12.896Z,99397.38
2022-08-10T23:20:42.980Z,99398.97
2022-08-10T23:23:23.437Z,99405.59
2022-08-10T23:25:57.523Z,99407.19
2022-08-10T23:28:39.402Z,99401.88
2022-08-10T23:31:17.739Z,99403.22
2022-08-10T23:34:08.051Z,99407.47
2022-08-10T23:36:38.655Z,99404.03
2022-08-10T23:39:26.324Z,99405.06
2022-08-10T23:42:04.714Z,99401.88
2022-08-10T23:44:43.222Z,99399.50
2022-08-10T23:47:14.138Z,99404.56
2022-08-10T23:49:45.786Z,99403.75
2022-08-10T23:52:18.269Z,99398.97
2022-08-10T23:54:51.081Z,99400.81
2022-08-10T23:57:23.279Z,99392.84
2022-08-10T23:59:54.521Z,99397.88
